Las Americas, Dominican Republic

3:17 AM AST on October 24, 2014 (GMT -0400)
Las Americas International | Change Station
CLOSE
Current Station
Airport
Location: Las Americas,
Elevation: 59 ft
Nearby Weather Stations

Elev 59 ft 18.43 °N, 69.67 °W | Updated 17 minutes ago

Partly Cloudy
Partly Cloudy
73 °F
Feels Like 73 °F
N
4
Wind Variable Wind from Variable

Today
High -- | Low -- °F
--% Chance of Precip.
Yesterday
High -- | Low -- °F
Precip. -- in
6:35 AM 6:10 PM
New Moon, 0% visible
Pressure 29.89 in
Visibility 6.2 miles
Clouds Few 1800 ft
Dew Point 72 °F
Humidity 94%
Rainfall 0.00 in
Snow Depth Not available.
UV 0 out of 12
Pollen Not available.
Air Quality Not available.
Flu Activity Not available.
METAR MDSD 240700Z VRB03KT 9999 FEW018 23/22 Q1012 NOSIG

More Conditions Fewer Conditions

Pressure 29.89 in
Visibility 6.2 miles
Clouds Few 1800 ft
Dew Point 72 °F
Humidity 94%
Rainfall 0.00 in
Snow Depth Not available.
UV 0 out of 12
Pollen Not available.
Air Quality Not available.
Flu Activity Not available.
METAR MDSD 240700Z VRB03KT 9999 FEW018 23/22 Q1012 NOSIG

More Conditions Fewer Conditions

10-Day Weather Forecast

Almanac

Astronomy

Oct. 24, 2014 Rise Set
Actual Time 6:35 AM AST 6:10 PM AST
Civil Twilight 6:13 AM AST 6:32 PM AST
Nautical Twilight 5:47 AM AST 6:58 PM AST
Astronomical Twilight 5:21 AM AST 7:23 PM AST
Moon 7:07 AM AST 6:54 PM AST
Length of Visible Light 12h 19m
Length of Day
11h 34m
Tomorrow will be 0m 56s shorter.
New Moon, 0% of the Moon is Illuminated
Today
New Moon
Oct 30
First Quarter
Nov 6
Full
Nov 14
Last Quarter
Nov 22
New

Yesterday's Extremes

Country Highs Country Lows

Community

WunderPhotos

Upload Photos

1,764,510 photos uploaded!

WunderBlogs® & News

Nearby

Snow Depth

Not available.

Earthquake Activity

City Distance Mag. Time & Date
No recent earthquake activity has been reported nearby.
Minimum magnitude displayed is 2.5.

Coastal Water Temperatures

Place Temperature
No Stations Reporting

Nearby Weather Stations